createdAt,value
2023-01-30T00:01:02.253Z,98862.50
2023-01-30T00:03:29.184Z,98853.31
2023-01-30T00:05:56.110Z,98861.88
2023-01-30T00:08:23.321Z,98858.34
2023-01-30T00:10:50.329Z,98860.53
2023-01-30T00:13:17.256Z,98845.38
2023-01-30T00:15:44.528Z,98861.59
2023-01-30T00:18:11.556Z,98832.03
2023-01-30T00:20:38.476Z,98838.63
2023-01-30T00:23:06.310Z,98854.91
2023-01-30T00:25:33.318Z,98884.81
2023-01-30T00:28:01.676Z,98847.09
2023-01-30T00:30:30.164Z,98852.75
2023-01-30T00:32:59.979Z,98848.22
2023-01-30T00:35:27.200Z,98850.94
2023-01-30T00:38:00.934Z,98880.84
2023-01-30T00:40:29.799Z,98885.41
2023-01-30T00:42:56.695Z,98865.53
2023-01-30T00:45:23.588Z,98869.63
2023-01-30T00:47:50.831Z,98853.56
2023-01-30T00:50:17.910Z,98849.59
2023-01-30T00:52:44.838Z,98884.66
2023-01-30T00:55:12.147Z,98846.75
2023-01-30T00:57:39.010Z,98855.25
2023-01-30T01:00:06.739Z,98865.38
2023-01-30T01:02:33.753Z,98857.06
2023-01-30T01:05:01.348Z,98848.50
2023-01-30T01:07:28.308Z,98860.16
2023-01-30T01:09:55.453Z,98854.41
2023-01-30T01:12:22.339Z,98829.63
2023-01-30T01:14:49.316Z,98840.56
2023-01-30T01:17:16.493Z,98867.22
2023-01-30T01:19:43.547Z,98849.44
2023-01-30T01:22:10.470Z,98834.66
2023-01-30T01:24:37.456Z,98827.03
2023-01-30T01:27:04.349Z,98813.84
2023-01-30T01:29:32.369Z,98831.91
2023-01-30T01:31:59.271Z,98837.47
2023-01-30T01:34:26.266Z,98831.22
2023-01-30T01:36:54.205Z,98815.31
2023-01-30T01:39:21.995Z,98811.34
2023-01-30T01:41:50.352Z,98837.19
2023-01-30T01:44:17.541Z,98794.06
2023-01-30T01:46:58.672Z,98797.13
2023-01-30T01:49:36.340Z,98817.78
2023-01-30T01:52:11.717Z,98805.63
2023-01-30T01:54:54.500Z,98810.47
2023-01-30T01:57:30.523Z,98802.94
2023-01-30T02:00:22.192Z,98800.16
2023-01-30T02:02:55.015Z,98802.53
2023-01-30T02:05:23.709Z,98800.19
2023-01-30T02:08:02.488Z,98805.00
2023-01-30T02:11:07.973Z,98790.72
2023-01-30T02:13:38.172Z,98794.84
2023-01-30T02:16:07.683Z,98800.78
2023-01-30T02:18:37.235Z,98816.63
2023-01-30T02:21:37.227Z,98788.28
2023-01-30T02:24:36.701Z,98791.94
2023-01-30T02:27:17.768Z,98771.09
2023-01-30T02:29:56.775Z,98807.19
2023-01-30T02:32:32.341Z,98786.28
2023-01-30T02:35:05.098Z,98794.25
2023-01-30T02:37:44.178Z,98800.63
2023-01-30T02:40:33.308Z,98795.47
2023-01-30T02:43:18.503Z,98812.56
2023-01-30T02:45:54.372Z,98781.00
2023-01-30T02:48:30.949Z,98802.09
2023-01-30T02:51:04.698Z,98773.63
2023-01-30T02:53:33.312Z,98775.13
2023-01-30T02:56:00.856Z,98789.56
2023-01-30T02:58:34.100Z,98803.06
2023-01-30T03:01:32.194Z,98800.50
2023-01-30T03:04:11.501Z,98797.16
2023-01-30T03:07:01.157Z,98780.53
2023-01-30T03:09:35.116Z,98772.50
2023-01-30T03:12:11.441Z,98767.50
2023-01-30T03:15:01.712Z,98793.81
2023-01-30T03:17:32.490Z,98772.47
2023-01-30T03:20:01.050Z,98798.44
2023-01-30T03:22:37.065Z,98782.72
2023-01-30T03:25:05.324Z,98753.53
2023-01-30T03:27:35.652Z,98758.38
2023-01-30T03:30:02.718Z,98777.09
2023-01-30T03:32:29.719Z,98778.50
2023-01-30T03:34:56.941Z,98751.91
2023-01-30T03:37:23.911Z,98774.50
2023-01-30T03:39:50.895Z,98766.38
2023-01-30T03:42:18.010Z,98780.59
2023-01-30T03:44:45.034Z,98784.97
2023-01-30T03:47:11.998Z,98788.16
2023-01-30T03:49:39.139Z,98777.59
2023-01-30T03:52:06.010Z,98764.72
2023-01-30T03:54:32.932Z,98787.59
2023-01-30T03:56:59.788Z,98766.56
2023-01-30T03:59:26.800Z,98783.53
2023-01-30T04:02:02.064Z,98784.13
2023-01-30T04:04:29.190Z,98773.78
2023-01-30T04:06:57.118Z,98781.72
2023-01-30T04:09:24.638Z,98785.00
2023-01-30T04:11:52.752Z,98782.59
2023-01-30T04:14:19.994Z,98767.63
2023-01-30T04:17:25.311Z,98780.06
2023-01-30T04:20:12.322Z,98780.22
2023-01-30T04:22:44.954Z,98774.19
2023-01-30T04:25:12.144Z,98776.91
2023-01-30T04:27:39.009Z,98766.75
2023-01-30T04:30:18.287Z,98784.06
2023-01-30T04:32:47.523Z,98750.72
2023-01-30T04:35:15.596Z,98807.38
2023-01-30T04:37:42.846Z,98782.94
2023-01-30T04:40:13.333Z,98777.31
2023-01-30T04:42:40.799Z,98800.09
2023-01-30T04:45:26.227Z,98809.16
2023-01-30T04:47:53.424Z,98812.94
2023-01-30T04:50:20.489Z,98810.72
2023-01-30T04:52:47.434Z,98808.56
2023-01-30T04:55:14.441Z,98808.56
2023-01-30T04:57:41.451Z,98813.72
2023-01-30T05:00:09.983Z,98809.03
2023-01-30T05:02:41.042Z,98797.69
2023-01-30T05:05:08.345Z,98802.22
2023-01-30T05:07:35.195Z,98815.97
2023-01-30T05:10:02.234Z,98800.81
2023-01-30T05:12:31.698Z,98820.84
2023-01-30T05:14:58.736Z,98807.66
2023-01-30T05:17:25.816Z,98795.84
2023-01-30T05:19:52.708Z,98786.03
2023-01-30T05:22:19.632Z,98817.22
2023-01-30T05:24:46.647Z,98818.94
2023-01-30T05:27:13.533Z,98794.19
2023-01-30T05:29:40.423Z,98795.75
2023-01-30T05:32:07.667Z,98756.63
2023-01-30T05:34:34.658Z,98776.47
2023-01-30T05:37:01.499Z,98779.38
2023-01-30T05:39:28.479Z,98756.22
2023-01-30T05:41:55.291Z,98772.09
2023-01-30T05:44:22.382Z,98793.13
2023-01-30T05:46:49.654Z,98781.72
2023-01-30T05:49:16.742Z,98763.28
2023-01-30T05:51:43.586Z,98784.81
2023-01-30T05:54:10.654Z,98787.94
2023-01-30T05:56:37.564Z,98795.06
2023-01-30T05:59:04.536Z,98784.63
2023-01-30T06:01:31.790Z,98784.25
2023-01-30T06:03:59.211Z,98767.28
2023-01-30T06:06:26.284Z,98785.75
2023-01-30T06:08:54.537Z,98766.50
2023-01-30T06:11:22.934Z,98770.81
2023-01-30T06:13:50.095Z,98754.66
2023-01-30T06:16:18.336Z,98739.72
2023-01-30T06:18:45.841Z,98743.44
2023-01-30T06:21:14.029Z,98746.69
2023-01-30T06:23:41.887Z,98745.38
2023-01-30T06:26:09.618Z,98755.91
2023-01-30T06:28:36.732Z,98744.22
2023-01-30T06:31:06.600Z,98760.97
2023-01-30T06:33:33.678Z,98759.38
2023-01-30T06:36:00.576Z,98723.88
2023-01-30T06:38:27.492Z,98752.63
2023-01-30T06:40:54.339Z,98746.47
2023-01-30T06:43:21.727Z,98767.63
2023-01-30T06:45:48.701Z,98767.88
2023-01-30T06:48:15.645Z,98773.69
2023-01-30T06:50:42.613Z,98771.16
2023-01-30T06:53:11.080Z,98769.53
2023-01-30T06:55:37.955Z,98756.84
2023-01-30T06:58:06.165Z,98781.50
2023-01-30T07:00:34.515Z,98757.38
2023-01-30T07:03:01.794Z,98772.28
2023-01-30T07:05:29.015Z,98772.56
2023-01-30T07:07:55.981Z,98777.59
2023-01-30T07:10:23.511Z,98761.91
2023-01-30T07:12:50.521Z,98783.44
2023-01-30T07:15:17.770Z,98763.44
2023-01-30T07:17:44.874Z,98785.34
2023-01-30T07:20:12.101Z,98793.31
2023-01-30T07:22:39.107Z,98770.97
2023-01-30T07:25:06.661Z,98800.31
2023-01-30T07:27:34.156Z,98791.47
2023-01-30T07:30:01.025Z,98790.38
2023-01-30T07:32:28.089Z,98778.44
2023-01-30T07:34:55.008Z,98775.53
2023-01-30T07:37:21.946Z,98763.34
2023-01-30T07:39:48.813Z,98770.16
2023-01-30T07:42:15.904Z,98753.22
2023-01-30T07:44:42.866Z,98760.88
2023-01-30T07:47:09.986Z,98754.31
2023-01-30T07:49:36.979Z,98734.97
2023-01-30T07:52:04.206Z,98742.22
2023-01-30T07:54:31.082Z,98752.03
2023-01-30T07:56:58.136Z,98725.50
2023-01-30T07:59:25.034Z,98738.22
2023-01-30T08:01:52.027Z,98753.84
2023-01-30T08:04:19.096Z,98751.16
2023-01-30T08:06:46.223Z,98743.28
2023-01-30T08:09:13.125Z,98742.31
2023-01-30T08:11:40.188Z,98718.78
2023-01-30T08:14:07.040Z,98706.53
2023-01-30T08:16:34.066Z,98716.22
2023-01-30T08:19:01.037Z,98728.97
2023-01-30T08:21:27.969Z,98710.75
2023-01-30T08:23:54.800Z,98741.78
2023-01-30T08:26:21.705Z,98699.44
2023-01-30T08:28:49.111Z,98721.00
2023-01-30T08:31:17.629Z,98713.00
2023-01-30T08:33:44.981Z,98704.56
2023-01-30T08:36:11.900Z,98709.13
2023-01-30T08:38:38.747Z,98705.88
2023-01-30T08:41:07.286Z,98698.88
2023-01-30T08:43:35.257Z,98699.75
2023-01-30T08:46:02.597Z,98715.63
2023-01-30T08:48:36.721Z,98698.41
2023-01-30T08:51:07.354Z,98694.44
2023-01-30T08:53:34.440Z,98687.16
2023-01-30T08:56:01.383Z,98706.53
2023-01-30T08:58:28.303Z,98688.13
2023-01-30T09:00:55.532Z,98674.78
2023-01-30T09:03:22.367Z,98691.88
2023-01-30T09:05:55.809Z,98667.31
2023-01-30T09:08:22.953Z,98673.06
2023-01-30T09:10:49.819Z,98672.13
2023-01-30T09:13:16.815Z,98655.00
2023-01-30T09:15:44.799Z,98661.09
2023-01-30T09:18:11.883Z,98656.16
2023-01-30T09:20:38.883Z,98665.72
2023-01-30T09:23:05.820Z,98644.72
2023-01-30T09:25:32.627Z,98642.66
2023-01-30T09:27:59.685Z,98645.66
2023-01-30T09:30:26.783Z,98664.72
2023-01-30T09:32:53.960Z,98649.53
2023-01-30T09:35:20.912Z,98632.84
2023-01-30T09:37:49.771Z,98633.75
2023-01-30T09:40:28.538Z,98623.16
2023-01-30T09:43:20.471Z,98656.75
2023-01-30T09:45:53.407Z,98614.19
2023-01-30T09:48:32.406Z,98618.53
2023-01-30T09:51:21.108Z,98610.47
2023-01-30T09:54:13.025Z,98622.81
2023-01-30T09:56:40.368Z,98611.69
2023-01-30T09:59:16.070Z,98586.13
2023-01-30T10:02:24.579Z,98599.91
2023-01-30T10:05:00.932Z,98590.16
2023-01-30T10:07:57.194Z,98601.47
2023-01-30T10:10:48.322Z,98581.13
2023-01-30T10:13:41.206Z,98576.47
2023-01-30T10:16:24.083Z,98597.28
2023-01-30T10:19:09.087Z,98582.94
2023-01-30T10:21:44.646Z,98547.94
2023-01-30T10:24:49.826Z,98578.69
2023-01-30T10:27:18.514Z,98576.44
2023-01-30T10:29:52.032Z,98593.81
2023-01-30T10:32:26.682Z,98566.97
2023-01-30T10:34:58.141Z,98577.28
2023-01-30T10:37:31.284Z,98571.34
2023-01-30T10:40:21.820Z,98577.78
2023-01-30T10:43:10.104Z,98569.09
2023-01-30T10:46:07.026Z,98549.53
2023-01-30T10:48:57.175Z,98546.00
2023-01-30T10:51:57.936Z,98561.03
2023-01-30T10:54:40.500Z,98544.69
2023-01-30T10:57:26.277Z,98558.94
2023-01-30T10:59:59.002Z,98537.53
2023-01-30T11:02:56.916Z,98523.34
2023-01-30T11:05:47.031Z,98522.13
2023-01-30T11:08:19.162Z,98552.03
2023-01-30T11:10:46.185Z,98535.69
2023-01-30T11:13:20.787Z,98530.38
2023-01-30T11:15:53.910Z,98523.53
2023-01-30T11:21:19.972Z,98529.06
2023-01-30T11:23:46.984Z,98559.66
2023-01-30T11:26:46.850Z,98553.91
2023-01-30T11:29:33.186Z,98543.97
2023-01-30T11:32:05.724Z,98523.41
2023-01-30T11:34:33.149Z,98528.69
2023-01-30T11:37:30.612Z,98551.34
2023-01-30T11:39:57.617Z,98546.53
2023-01-30T11:42:32.219Z,98529.63
2023-01-30T11:45:16.222Z,98520.53
2023-01-30T11:48:05.414Z,98532.56
2023-01-30T11:50:44.805Z,98520.38
2023-01-30T11:53:25.604Z,98525.28
2023-01-30T11:56:08.536Z,98514.63
2023-01-30T11:58:39.658Z,98519.00
2023-01-30T12:01:10.006Z,98520.59
2023-01-30T12:03:53.520Z,98504.25
2023-01-30T12:06:33.020Z,98516.66
2023-01-30T12:09:00.199Z,98497.72
2023-01-30T12:11:38.428Z,98491.97
2023-01-30T12:14:44.912Z,98530.03
2023-01-30T12:17:31.508Z,98514.88
2023-01-30T12:20:01.300Z,98512.97
2023-01-30T12:22:41.963Z,98514.56
2023-01-30T12:25:26.781Z,98489.09
2023-01-30T12:28:01.867Z,98503.81
2023-01-30T12:30:36.440Z,98503.06
2023-01-30T12:33:06.226Z,98514.13
2023-01-30T12:36:06.721Z,98514.47
2023-01-30T12:38:56.168Z,98514.22
2023-01-30T12:41:42.853Z,98494.09
2023-01-30T12:44:25.727Z,98510.25
2023-01-30T12:47:30.444Z,98505.31
2023-01-30T12:50:06.268Z,98489.19
2023-01-30T12:52:56.808Z,98507.84
2023-01-30T12:56:02.795Z,98521.03
2023-01-30T12:58:57.627Z,98506.28
2023-01-30T13:01:48.127Z,98504.03
2023-01-30T13:04:35.787Z,98509.97
2023-01-30T13:07:13.539Z,98506.16
2023-01-30T13:10:12.209Z,98515.13
2023-01-30T13:13:07.949Z,98470.25
2023-01-30T13:15:49.035Z,98502.41
2023-01-30T13:18:24.248Z,98464.00
2023-01-30T13:21:16.525Z,98487.03
2023-01-30T13:23:49.279Z,98472.53
2023-01-30T13:26:31.164Z,98458.41
2023-01-30T13:29:24.322Z,98476.06
2023-01-30T13:31:55.301Z,98471.00
2023-01-30T13:34:55.556Z,98478.75
2023-01-30T13:37:22.630Z,98469.25
2023-01-30T13:40:13.747Z,98472.72
2023-01-30T13:42:47.968Z,98460.56
2023-01-30T13:45:22.184Z,98457.03
2023-01-30T13:47:57.946Z,98457.41
2023-01-30T13:50:41.782Z,98473.44
2023-01-30T13:53:11.506Z,98488.78
2023-01-30T13:55:50.566Z,98476.84
2023-01-30T13:58:37.354Z,98465.16
2023-01-30T14:01:04.444Z,98456.22
2023-01-30T14:03:33.130Z,98444.50
2023-01-30T14:06:21.919Z,98466.66
2023-01-30T14:08:54.737Z,98446.75
2023-01-30T14:11:38.052Z,98466.16
2023-01-30T14:14:29.151Z,98460.22
2023-01-30T14:17:14.350Z,98452.03
2023-01-30T14:19:46.136Z,98445.81
2023-01-30T14:22:45.298Z,98429.88
2023-01-30T14:25:30.569Z,98455.88
2023-01-30T14:28:00.384Z,98439.31
2023-01-30T14:30:39.207Z,98443.81
2023-01-30T14:33:29.504Z,98438.47
2023-01-30T14:36:02.581Z,98449.84
2023-01-30T14:38:36.869Z,98421.94
2023-01-30T14:41:03.774Z,98441.75
2023-01-30T14:43:42.597Z,98449.78
2023-01-30T14:46:19.009Z,98467.63
2023-01-30T14:48:53.283Z,98464.34
2023-01-30T14:51:48.996Z,98463.22
2023-01-30T14:54:16.106Z,98429.53
2023-01-30T14:57:03.591Z,98441.84
2023-01-30T14:59:45.815Z,98437.69
2023-01-30T15:02:12.754Z,98455.19
2023-01-30T15:04:47.083Z,98453.94
2023-01-30T15:07:14.072Z,98429.31
2023-01-30T15:09:45.746Z,98447.53
2023-01-30T15:12:21.374Z,98432.34
2023-01-30T15:15:04.125Z,98457.06
2023-01-30T15:17:40.396Z,98433.97
2023-01-30T15:20:13.652Z,98437.81
2023-01-30T15:22:52.946Z,98432.22
2023-01-30T15:25:49.070Z,98417.38
2023-01-30T15:28:41.836Z,98415.88
2023-01-30T15:31:18.362Z,98414.63
2023-01-30T15:33:53.864Z,98422.22
2023-01-30T15:36:30.840Z,98408.72
2023-01-30T15:39:04.301Z,98434.44
2023-01-30T15:41:41.809Z,98430.50
2023-01-30T15:44:34.847Z,98421.16
2023-01-30T15:47:14.059Z,98420.28
2023-01-30T15:50:04.847Z,98412.00
2023-01-30T15:52:39.354Z,98421.66
2023-01-30T15:55:08.022Z,98429.06
2023-01-30T15:57:38.839Z,98399.94
2023-01-30T16:00:08.377Z,98413.00
2023-01-30T16:02:43.283Z,98407.56
2023-01-30T16:05:24.847Z,98378.09
2023-01-30T16:07:54.470Z,98393.53
2023-01-30T16:10:26.059Z,98440.00
2023-01-30T16:12:56.163Z,98415.06
2023-01-30T16:15:36.256Z,98412.44
2023-01-30T16:18:06.219Z,98414.63
2023-01-30T16:21:03.215Z,98402.09
2023-01-30T16:23:43.671Z,98415.44
2023-01-30T16:26:16.201Z,98396.53
2023-01-30T16:28:43.693Z,98398.34
2023-01-30T16:31:11.768Z,98409.91
2023-01-30T16:33:39.312Z,98392.41
2023-01-30T16:36:26.486Z,98407.97
2023-01-30T16:38:55.187Z,98397.78
2023-01-30T16:41:34.413Z,98386.13
2023-01-30T16:44:34.007Z,98402.00
2023-01-30T16:47:22.943Z,98393.03
2023-01-30T16:49:50.423Z,98364.56
2023-01-30T16:52:34.589Z,98381.72
2023-01-30T16:55:05.692Z,98393.34
2023-01-30T16:57:37.174Z,98385.50
2023-01-30T17:00:07.428Z,98383.13
2023-01-30T17:02:37.368Z,98369.03
2023-01-30T17:05:19.571Z,98369.72
2023-01-30T17:07:47.745Z,98371.03
2023-01-30T17:10:39.500Z,98379.88
2023-01-30T17:13:34.519Z,98387.31
2023-01-30T17:16:25.317Z,98370.78
2023-01-30T17:18:54.764Z,98385.47
2023-01-30T17:21:24.376Z,98372.53
2023-01-30T17:23:56.492Z,98390.75
2023-01-30T17:26:23.802Z,98388.03
2023-01-30T17:28:50.700Z,98381.09
2023-01-30T17:31:18.103Z,98399.66
2023-01-30T17:33:44.999Z,98382.47
2023-01-30T17:36:41.514Z,98379.81
2023-01-30T17:39:12.260Z,98357.47
2023-01-30T17:41:39.839Z,98376.44
2023-01-30T17:44:06.863Z,98367.56
2023-01-30T17:46:46.965Z,98377.88
2023-01-30T17:49:24.545Z,98392.38
2023-01-30T17:51:52.781Z,98381.09
2023-01-30T17:54:20.156Z,98386.69
2023-01-30T17:56:51.721Z,98371.50
2023-01-30T17:59:20.596Z,98380.66
2023-01-30T18:01:50.375Z,98383.16
2023-01-30T18:04:19.030Z,98347.38
2023-01-30T18:06:49.412Z,98380.06
2023-01-30T18:09:20.376Z,98388.91
2023-01-30T18:11:48.617Z,98390.00
2023-01-30T18:14:16.597Z,98382.81
2023-01-30T18:16:44.331Z,98369.13
2023-01-30T18:19:17.267Z,98382.72
2023-01-30T18:21:44.252Z,98375.00
2023-01-30T18:24:14.769Z,98389.44
2023-01-30T18:26:42.693Z,98384.97
2023-01-30T18:29:10.667Z,98384.97
2023-01-30T18:31:41.750Z,98376.03
2023-01-30T18:34:11.344Z,98380.94
2023-01-30T18:36:38.832Z,98372.66
2023-01-30T18:39:06.177Z,98359.34
2023-01-30T18:41:33.208Z,98367.28
2023-01-30T18:44:04.812Z,98354.81
2023-01-30T18:46:33.973Z,98366.47
2023-01-30T18:49:01.059Z,98365.59
2023-01-30T18:51:32.005Z,98359.34
2023-01-30T18:54:01.419Z,98358.81
2023-01-30T18:56:30.875Z,98358.88
2023-01-30T18:58:59.329Z,98360.09
2023-01-30T19:01:28.043Z,98361.13
2023-01-30T19:04:02.040Z,98350.31
2023-01-30T19:06:29.527Z,98346.88
2023-01-30T19:08:57.666Z,98356.47
2023-01-30T19:11:25.173Z,98350.69
2023-01-30T19:13:53.281Z,98342.53
2023-01-30T19:16:21.705Z,98349.78
2023-01-30T19:18:48.958Z,98355.47
2023-01-30T19:21:17.232Z,98351.06
2023-01-30T19:23:44.196Z,98355.25
2023-01-30T19:26:11.429Z,98343.06
2023-01-30T19:28:39.169Z,98349.19
2023-01-30T19:31:07.837Z,98347.56
2023-01-30T19:33:35.193Z,98351.75
2023-01-30T19:36:13.367Z,98355.09
2023-01-30T19:38:41.381Z,98342.41
2023-01-30T19:41:28.565Z,98342.22
2023-01-30T19:43:57.413Z,98351.44
2023-01-30T19:46:24.939Z,98348.41
2023-01-30T19:48:51.980Z,98359.63
2023-01-30T19:51:27.507Z,98357.53
2023-01-30T19:53:57.427Z,98352.56
2023-01-30T19:56:25.948Z,98352.22
2023-01-30T19:58:54.745Z,98332.25
2023-01-30T20:01:24.399Z,98348.44
2023-01-30T20:03:51.486Z,98358.63
2023-01-30T20:06:21.092Z,98337.94
2023-01-30T20:08:50.066Z,98348.72
2023-01-30T20:11:19.152Z,98350.28
2023-01-30T20:13:46.720Z,98358.19
2023-01-30T20:16:16.138Z,98340.38
2023-01-30T20:18:43.079Z,98335.34
2023-01-30T20:21:12.253Z,98329.72
2023-01-30T20:23:40.461Z,98345.91
2023-01-30T20:26:10.421Z,98355.91
2023-01-30T20:28:37.505Z,98338.56
2023-01-30T20:31:17.144Z,98336.63
2023-01-30T20:33:44.299Z,98336.31
2023-01-30T20:36:14.620Z,98339.41
2023-01-30T20:38:43.239Z,98320.44
2023-01-30T20:41:22.052Z,98340.16
2023-01-30T20:43:52.153Z,98342.75
2023-01-30T20:46:21.857Z,98340.78
2023-01-30T20:48:50.568Z,98346.19
2023-01-30T20:51:21.095Z,98336.59
2023-01-30T20:53:50.834Z,98357.19
2023-01-30T20:56:18.969Z,98334.66
2023-01-30T20:58:46.462Z,98336.16
2023-01-30T21:01:19.625Z,98333.31
2023-01-30T21:03:48.188Z,98346.41
2023-01-30T21:06:42.642Z,98336.38
2023-01-30T21:09:03.349Z,98339.88
2023-01-30T21:11:30.254Z,98329.75
2023-01-30T21:13:57.348Z,98338.06
2023-01-30T21:16:27.728Z,98324.19
2023-01-30T21:18:58.276Z,98334.00
2023-01-30T21:21:39.205Z,98309.00
2023-01-30T21:24:13.216Z,98337.06
2023-01-30T21:26:43.649Z,98358.50
2023-01-30T21:29:11.009Z,98351.44
2023-01-30T21:31:39.647Z,98351.81
2023-01-30T21:34:07.210Z,98349.44
2023-01-30T21:36:34.184Z,98333.81
2023-01-30T21:39:01.108Z,98348.56
2023-01-30T21:41:34.711Z,98317.69
2023-01-30T21:44:01.872Z,98340.91
2023-01-30T21:46:31.980Z,98350.56
2023-01-30T21:48:59.313Z,98344.19
2023-01-30T21:51:26.142Z,98331.75
2023-01-30T21:53:54.409Z,98328.50
2023-01-30T21:56:23.093Z,98362.56
2023-01-30T21:58:50.463Z,98339.72
2023-01-30T22:01:18.224Z,98353.72
2023-01-30T22:03:45.199Z,98361.13
2023-01-30T22:06:12.295Z,98359.50
2023-01-30T22:08:40.025Z,98369.59
2023-01-30T22:11:12.988Z,98331.06
2023-01-30T22:13:42.093Z,98365.78
2023-01-30T22:16:12.282Z,98359.69
2023-01-30T22:18:40.687Z,98343.03
2023-01-30T22:21:08.812Z,98365.69
2023-01-30T22:23:38.576Z,98377.63
2023-01-30T22:26:06.187Z,98366.16
2023-01-30T22:28:33.465Z,98366.03
2023-01-30T22:31:08.397Z,98366.56
2023-01-30T22:33:36.554Z,98360.88
2023-01-30T22:36:06.359Z,98331.25
2023-01-30T22:38:34.237Z,98365.13
2023-01-30T22:41:08.870Z,98339.97
2023-01-30T22:43:36.208Z,98359.81
2023-01-30T22:46:06.238Z,98368.13
2023-01-30T22:48:34.499Z,98344.81
2023-01-30T22:51:16.550Z,98355.97
2023-01-30T22:54:10.862Z,98348.56
2023-01-30T22:56:40.681Z,98359.28
2023-01-30T22:59:08.859Z,98365.75
2023-01-30T23:01:38.408Z,98367.88
2023-01-30T23:04:13.212Z,98357.59
2023-01-30T23:06:41.165Z,98359.63
2023-01-30T23:09:10.477Z,98348.75
2023-01-30T23:11:43.723Z,98349.81
2023-01-30T23:14:12.646Z,98373.69
2023-01-30T23:16:42.090Z,98340.97
2023-01-30T23:19:10.942Z,98344.81
2023-01-30T23:21:43.004Z,98343.56
2023-01-30T23:24:21.025Z,98365.34
2023-01-30T23:26:50.399Z,98357.84
2023-01-30T23:29:19.840Z,98348.88
2023-01-30T23:31:47.670Z,98354.41
2023-01-30T23:34:17.344Z,98351.78
2023-01-30T23:36:45.352Z,98357.63
2023-01-30T23:39:13.667Z,98350.09
2023-01-30T23:41:41.981Z,98365.34
2023-01-30T23:44:09.783Z,98367.28
2023-01-30T23:46:41.757Z,98374.38
2023-01-30T23:49:11.961Z,98359.00
2023-01-30T23:51:40.740Z,98370.53
2023-01-30T23:54:08.476Z,98367.66
2023-01-30T23:56:38.785Z,98356.75
2023-01-30T23:59:06.325Z,98356.75
